Time;durP1;ratioP1;P1;durP2;ratioP2;P2;SDS_P1;SDS_P2;PMS_P1;PMS_P2;Temp;Humidity;BMP_temperature;BMP_pressure;BME280_temperature;BME280_humidity;BME280_pressure;Samples;Min_cycle;Max_cycle;Signal;HPM_P1;HPM_P2
2023/11/25 00:00:35;;;;;;;;;8.00;7.67;;;;;;;;4907454;28;45349;-77
2023/11/25 00:03:00;;;;;;;;;5.00;3.67;;;;;;;;4907274;28;47045;-78
2023/11/25 00:05:26;;;;;;;;;6.67;5.00;;;;;;;;4924189;28;46231;-76
2023/11/25 00:07:51;;;;;;;;;7.00;5.00;;;;;;;;4924400;28;45458;-77
2023/11/25 00:10:16;;;;;;;;;8.00;5.33;;;;;;;;4923465;28;45322;-76
2023/11/25 00:12:42;;;;;;;;;4.33;4.33;;;;;;;;4924408;28;45359;-78
2023/11/25 00:15:07;;;;;;;;;4.33;4.33;;;;;;;;4906877;28;47275;-77
2023/11/25 00:17:32;;;;;;;;;8.33;5.00;;;;;;;;4907089;28;45304;-76
2023/11/25 00:19:58;;;;;;;;;5.00;5.00;;;;;;;;4924295;28;45320;-78
2023/11/25 00:22:24;;;;;;;;;9.00;7.33;;;;;;;;4924131;28;45422;-76
2023/11/25 00:24:49;;;;;;;;;5.00;5.00;;;;;;;;4924094;28;45359;-78
2023/11/25 00:27:15;;;;;;;;;5.33;5.33;;;;;;;;4906692;28;45296;-77
2023/11/25 00:29:40;;;;;;;;;7.33;5.00;;;;;;;;4924332;28;45499;-76
2023/11/25 00:32:05;;;;;;;;;7.67;7.00;;;;;;;;4906956;28;47539;-76
2023/11/25 00:34:31;;;;;;;;;7.33;7.33;;;;;;;;4906695;28;48204;-77
2023/11/25 00:36:56;;;;;;;;;5.67;5.33;;;;;;;;4923796;28;45397;-76
2023/11/25 00:39:21;;;;;;;;;4.33;3.33;;;;;;;;4924365;28;45260;-77
2023/11/25 00:41:48;;;;;;;;;7.00;4.33;;;;;;;;4906339;28;47187;-77
2023/11/25 00:44:13;;;;;;;;;7.00;7.00;;;;;;;;4906589;28;47154;-76
2023/11/25 00:46:39;;;;;;;;;10.00;8.00;;;;;;;;4906412;28;45296;-79
2023/11/25 00:49:05;;;;;;;;;9.67;9.67;;;;;;;;4906692;28;45479;-77
2023/11/25 00:51:31;;;;;;;;;9.67;8.00;;;;;;;;4923643;28;45300;-76
2023/11/25 00:53:56;;;;;;;;;5.33;4.67;;;;;;;;4910291;28;45962;-77
2023/11/25 00:56:21;;;;;;;;;7.00;7.00;;;;;;;;4904541;29;45436;-78
2023/11/25 00:58:47;;;;;;;;;8.67;4.67;;;;;;;;4922661;28;45331;-77
2023/11/25 01:01:12;;;;;;;;;5.33;5.33;;;;;;;;4923214;28;45386;-78
2023/11/25 01:03:37;;;;;;;;;8.00;8.00;;;;;;;;4923309;28;45425;-76
2023/11/25 01:06:07;;;;;;;;;5.00;5.00;;;;;;;;4923488;28;45352;-77
2023/11/25 01:08:32;;;;;;;;;4.00;4.00;;;;;;;;4923590;28;45182;-78
2023/11/25 01:10:58;;;;;;;;;5.67;5.67;;;;;;;;4908951;28;45204;-77
2023/11/25 01:13:23;;;;;;;;;10.00;6.33;;;;;;;;4886981;29;48284;-76
2023/11/25 01:15:48;;;;;;;;;8.67;8.67;;;;;;;;4904258;29;45521;-77
2023/11/25 01:18:13;;;;;;;;;6.67;6.67;;;;;;;;4887403;29;45514;-76
2023/11/25 01:20:38;;;;;;;;;8.33;4.00;;;;;;;;4904255;29;45538;-78
2023/11/25 01:23:04;;;;;;;;;6.67;6.33;;;;;;;;4904150;29;45304;-77
2023/11/25 01:25:29;;;;;;;;;7.33;7.00;;;;;;;;4887028;29;45324;-76
2023/11/25 01:27:54;;;;;;;;;7.00;7.00;;;;;;;;4904527;29;45451;-76
2023/11/25 01:30:20;;;;;;;;;7.33;7.33;;;;;;;;4887007;29;46191;-76
2023/11/25 01:32:45;;;;;;;;;9.00;7.33;;;;;;;;4904042;29;45301;-78
2023/11/25 01:35:11;;;;;;;;;7.67;6.00;;;;;;;;4886719;29;45350;-76
2023/11/25 01:37:36;;;;;;;;;7.00;7.00;;;;;;;;4886989;29;45342;-77
2023/11/25 01:40:05;;;;;;;;;4.00;4.00;;;;;;;;4903868;29;45293;-77
2023/11/25 01:42:30;;;;;;;;;6.33;5.00;;;;;;;;4903737;29;46137;-76
2023/11/25 01:44:55;;;;;;;;;5.33;5.33;;;;;;;;4902530;29;45347;-77
2023/11/25 01:47:20;;;;;;;;;7.00;5.33;;;;;;;;4904238;29;45353;-76
2023/11/25 01:49:46;;;;;;;;;7.00;5.00;;;;;;;;4886536;29;46397;-76
2023/11/25 01:52:11;;;;;;;;;5.67;5.67;;;;;;;;4903746;29;46375;-77
2023/11/25 01:54:37;;;;;;;;;3.33;3.33;;;;;;;;4886751;29;45207;-78
2023/11/25 01:57:03;;;;;;;;;5.33;5.33;;;;;;;;4907658;28;45272;-77
2023/11/25 01:59:29;;;;;;;;;7.00;7.00;;;;;;;;4904154;28;45945;-77
2023/11/25 02:01:55;;;;;;;;;5.67;5.33;;;;;;;;4903950;28;48308;-76
2023/11/25 02:04:20;;;;;;;;;7.67;6.67;;;;;;;;4922079;28;45252;-76
2023/11/25 02:06:46;;;;;;;;;4.00;4.00;;;;;;;;4922561;28;45344;-76
2023/11/25 02:09:11;;;;;;;;;6.67;6.33;;;;;;;;4922775;28;45294;-76
2023/11/25 02:11:52;;;;;;;;;7.33;7.00;;;;;;;;4904985;28;48014;-77
2023/11/25 02:14:18;;;;;;;;;4.33;4.33;;;;;;;;4922400;28;45327;-78
2023/11/25 02:16:43;;;;;;;;;4.00;4.00;;;;;;;;4922587;28;45561;-78
2023/11/25 02:19:08;;;;;;;;;8.00;8.00;;;;;;;;4922481;28;45367;-77
2023/11/25 02:21:38;;;;;;;;;7.33;6.33;;;;;;;;4922358;28;45475;-78
2023/11/25 02:24:06;;;;;;;;;3.33;3.33;;;;;;;;4905038;28;45277;-76
2023/11/25 02:26:32;;;;;;;;;7.33;5.33;;;;;;;;4905039;28;45364;-76
2023/11/25 02:28:57;;;;;;;;;7.33;6.00;;;;;;;;4922323;28;45336;-77
2023/11/25 02:31:22;;;;;;;;;11.67;8.33;;;;;;;;4905106;28;47094;-76
2023/11/25 02:33:47;;;;;;;;;8.00;5.67;;;;;;;;4904394;28;45289;-76
2023/11/25 02:36:12;;;;;;;;;9.00;7.00;;;;;;;;4902137;29;45395;-76
2023/11/25 02:38:38;;;;;;;;;9.67;8.00;;;;;;;;4901892;29;47137;-77
2023/11/25 02:41:04;;;;;;;;;7.00;5.33;;;;;;;;4882995;29;48014;-77
2023/11/25 02:43:29;;;;;;;;;7.33;7.33;;;;;;;;4883503;29;45291;-77
2023/11/25 02:45:54;;;;;;;;;7.00;6.33;;;;;;;;4881882;29;45358;-77
2023/11/25 02:48:19;;;;;;;;;11.00;11.00;;;;;;;;4883930;29;45410;-79
2023/11/25 02:50:44;;;;;;;;;22.00;18.67;;;;;;;;4884030;29;45545;-78
2023/11/25 02:53:10;;;;;;;;;15.67;13.33;;;;;;;;4882776;29;45988;-78
2023/11/25 02:55:35;;;;;;;;;10.33;9.00;;;;;;;;4882480;29;45611;-77
2023/11/25 02:58:00;;;;;;;;;10.00;9.33;;;;;;;;4894887;29;46083;-77
2023/11/25 03:02:53;;;;;;;;;10.33;9.00;;;;;;;;4903004;29;45375;-78
2023/11/25 03:05:18;;;;;;;;;17.67;12.00;;;;;;;;4902912;28;45374;-78
2023/11/25 03:07:44;;;;;;;;;12.67;12.00;;;;;;;;4901159;29;46628;-76
2023/11/25 03:10:10;;;;;;;;;8.00;8.00;;;;;;;;4902502;29;46157;-76
2023/11/25 03:12:35;;;;;;;;;12.00;9.67;;;;;;;;4902852;29;45296;-76
2023/11/25 03:15:00;;;;;;;;;8.67;7.00;;;;;;;;4902866;29;45333;-78
2023/11/25 03:17:27;;;;;;;;;9.00;9.00;;;;;;;;4902697;29;45606;-76
2023/11/25 03:19:52;;;;;;;;;9.00;9.00;;;;;;;;4902525;28;46087;-78
2023/11/25 03:22:17;;;;;;;;;10.00;9.00;;;;;;;;4902505;29;45517;-76
2023/11/25 03:24:43;;;;;;;;;9.33;9.33;;;;;;;;4902922;29;45232;-76
2023/11/25 03:27:08;;;;;;;;;11.00;10.33;;;;;;;;4902380;29;45316;-78
2023/11/25 03:29:34;;;;;;;;;9.00;9.00;;;;;;;;4902675;29;45623;-76
2023/11/25 03:31:59;;;;;;;;;12.67;11.33;;;;;;;;4902705;28;45302;-77
2023/11/25 03:34:25;;;;;;;;;11.67;9.33;;;;;;;;4902349;29;45307;-77
2023/11/25 03:36:51;;;;;;;;;7.67;7.00;;;;;;;;4919406;28;45322;-76
2023/11/25 03:39:16;;;;;;;;;7.67;6.67;;;;;;;;4904088;28;47918;-78
2023/11/25 03:41:42;;;;;;;;;6.33;6.33;;;;;;;;4921253;28;45483;-76
2023/11/25 03:44:08;;;;;;;;;7.00;4.00;;;;;;;;4904408;28;45430;-76
2023/11/25 03:46:33;;;;;;;;;6.33;6.33;;;;;;;;4924573;28;45368;-77
2023/11/25 03:48:58;;;;;;;;;3.00;3.00;;;;;;;;4907412;28;47294;-77
2023/11/25 03:51:24;;;;;;;;;4.00;4.00;;;;;;;;4924757;28;45307;-77
2023/11/25 03:53:49;;;;;;;;;6.00;4.00;;;;;;;;4924595;28;45490;-77
2023/11/25 03:56:15;;;;;;;;;7.00;6.00;;;;;;;;4924522;28;45209;-78
2023/11/25 03:58:41;;;;;;;;;4.67;4.67;;;;;;;;4889258;29;47567;-76
2023/11/25 04:01:06;;;;;;;;;3.00;3.00;;;;;;;;4888112;29;45500;-77
2023/11/25 04:03:35;;;;;;;;;3.67;3.00;;;;;;;;4905439;29;45356;-77
2023/11/25 04:06:01;;;;;;;;;3.33;3.33;;;;;;;;4905312;29;45473;-77
2023/11/25 04:08:26;;;;;;;;;2.00;1.00;;;;;;;;4888097;29;45875;-76
2023/11/25 04:10:52;;;;;;;;;4.33;3.00;;;;;;;;4887582;29;45858;-78
2023/11/25 04:13:17;;;;;;;;;3.00;3.00;;;;;;;;4887627;29;45324;-78
2023/11/25 04:15:43;;;;;;;;;3.00;3.00;;;;;;;;4904443;29;45341;-77
2023/11/25 04:18:08;;;;;;;;;3.33;3.33;;;;;;;;4887421;29;47280;-76
2023/11/25 04:20:33;;;;;;;;;3.33;3.33;;;;;;;;4905339;29;45392;-77
2023/11/25 04:23:05;;;;;;;;;3.00;3.00;;;;;;;;4905475;29;45558;-78
2023/11/25 04:25:30;;;;;;;;;3.00;2.00;;;;;;;;4905018;29;45447;-77
2023/11/25 04:27:56;;;;;;;;;2.67;2.00;;;;;;;;4887739;29;46930;-77
2023/11/25 04:30:22;;;;;;;;;7.33;7.00;;;;;;;;4905082;29;45321;-76
2023/11/25 04:32:48;;;;;;;;;4.00;2.33;;;;;;;;4905248;29;45371;-77
2023/11/25 04:35:14;;;;;;;;;4.00;4.00;;;;;;;;4904044;29;45337;-78
2023/11/25 04:37:40;;;;;;;;;7.33;4.00;;;;;;;;4887047;29;47539;-78
2023/11/25 04:40:11;;;;;;;;;2.00;2.00;;;;;;;;4887553;29;45737;-78
2023/11/25 04:42:36;;;;;;;;;8.33;4.00;;;;;;;;4904959;29;45402;-78
2023/11/25 04:45:03;;;;;;;;;4.33;3.67;;;;;;;;4887526;29;47160;-78
2023/11/25 04:47:28;;;;;;;;;2.67;2.67;;;;;;;;4904751;29;45383;-78
2023/11/25 04:49:53;;;;;;;;;2.67;2.67;;;;;;;;4887507;29;45375;-77
2023/11/25 04:52:19;;;;;;;;;2.33;2.33;;;;;;;;4887726;29;45278;-77
2023/11/25 04:54:46;;;;;;;;;7.00;3.67;;;;;;;;4904633;29;45158;-77
2023/11/25 04:57:11;;;;;;;;;2.33;2.33;;;;;;;;4909989;28;45296;-77
2023/11/25 04:59:36;;;;;;;;;4.00;4.00;;;;;;;;4923668;28;45218;-77
2023/11/25 05:02:03;;;;;;;;;3.00;3.00;;;;;;;;4923893;28;45371;-78
2023/11/25 05:04:29;;;;;;;;;6.00;5.33;;;;;;;;4923512;28;45513;-79
2023/11/25 05:06:54;;;;;;;;;5.33;3.67;;;;;;;;4905956;28;48201;-78
2023/11/25 05:09:19;;;;;;;;;4.67;4.00;;;;;;;;4923461;28;45339;-78
2023/11/25 05:11:44;;;;;;;;;6.00;4.00;;;;;;;;4923318;28;45344;-78
2023/11/25 05:14:10;;;;;;;;;2.33;2.00;;;;;;;;4923347;28;45304;-76
2023/11/25 05:16:35;;;;;;;;;4.00;3.67;;;;;;;;4923281;28;46077;-77
2023/11/25 05:19:00;;;;;;;;;4.67;3.00;;;;;;;;4923275;28;45444;-76
2023/11/25 05:21:25;;;;;;;;;4.67;3.67;;;;;;;;4894211;29;45435;-78
2023/11/25 05:23:51;;;;;;;;;3.00;3.00;;;;;;;;4886870;29;46104;-77
2023/11/25 05:26:16;;;;;;;;;3.00;3.00;;;;;;;;4902801;29;45522;-77
2023/11/25 05:28:41;;;;;;;;;3.00;3.00;;;;;;;;4886457;29;45385;-77
2023/11/25 05:31:07;;;;;;;;;4.00;4.00;;;;;;;;4904330;29;45361;-77
2023/11/25 05:33:33;;;;;;;;;2.33;2.33;;;;;;;;4904084;29;45292;-77
2023/11/25 05:35:59;;;;;;;;;4.00;3.00;;;;;;;;4886880;29;47557;-78
2023/11/25 05:38:25;;;;;;;;;5.33;4.00;;;;;;;;4886983;29;45691;-77
2023/11/25 05:40:52;;;;;;;;;5.67;3.67;;;;;;;;4903912;29;45169;-77
2023/11/25 05:43:18;;;;;;;;;4.00;4.00;;;;;;;;4903929;29;45672;-77
2023/11/25 05:45:43;;;;;;;;;4.00;4.00;;;;;;;;4886629;29;47409;-79
2023/11/25 05:48:09;;;;;;;;;5.33;5.33;;;;;;;;4903904;29;45365;-79
2023/11/25 05:50:34;;;;;;;;;4.67;3.00;;;;;;;;4903786;29;45317;-78
2023/11/25 05:52:59;;;;;;;;;4.00;4.00;;;;;;;;4886814;29;46006;-78
2023/11/25 05:55:26;;;;;;;;;2.33;1.00;;;;;;;;4886494;29;48435;-77
2023/11/25 05:57:52;;;;;;;;;2.67;2.67;;;;;;;;4914913;28;45381;-79
2023/11/25 06:00:17;;;;;;;;;5.00;3.33;;;;;;;;4905591;28;45278;-77
2023/11/25 06:02:43;;;;;;;;;6.00;3.67;;;;;;;;4905260;28;46005;-77
2023/11/25 06:05:09;;;;;;;;;5.00;5.00;;;;;;;;4922257;28;45799;-77
2023/11/25 06:07:34;;;;;;;;;6.67;3.67;;;;;;;;4921528;28;45299;-78
2023/11/25 06:10:00;;;;;;;;;3.33;3.33;;;;;;;;4922367;28;45368;-77
2023/11/25 06:12:26;;;;;;;;;4.00;3.33;;;;;;;;4922099;28;45321;-77
2023/11/25 06:14:55;;;;;;;;;4.00;3.00;;;;;;;;4904882;28;47258;-78
2023/11/25 06:17:20;;;;;;;;;3.00;2.67;;;;;;;;4922204;28;45347;-77
2023/11/25 06:19:46;;;;;;;;;2.33;2.33;;;;;;;;4922509;28;45294;-79
2023/11/25 06:22:12;;;;;;;;;3.00;2.67;;;;;;;;4904977;28;45982;-77
2023/11/25 06:24:37;;;;;;;;;1.00;0.33;;;;;;;;4922062;28;45380;-78
2023/11/25 06:27:02;;;;;;;;;4.00;3.00;;;;;;;;4922012;28;45304;-78
2023/11/25 06:29:28;;;;;;;;;3.00;3.00;;;;;;;;4922358;28;45316;-77
2023/11/25 06:31:54;;;;;;;;;4.33;4.33;;;;;;;;4904985;28;46276;-79
2023/11/25 06:34:19;;;;;;;;;5.33;3.00;;;;;;;;4922033;28;45224;-79
2023/11/25 06:36:46;;;;;;;;;5.33;5.33;;;;;;;;4921858;28;45256;-78
2023/11/25 06:39:14;;;;;;;;;8.33;8.33;;;;;;;;4905114;28;45397;-77
2023/11/25 06:41:43;;;;;;;;;12.00;11.33;;;;;;;;4904354;28;46574;-78
2023/11/25 06:44:08;;;;;;;;;11.67;10.67;;;;;;;;4921688;28;45368;-78
2023/11/25 06:46:33;;;;;;;;;11.00;11.00;;;;;;;;4921844;28;45276;-76
2023/11/25 06:48:58;;;;;;;;;12.00;8.00;;;;;;;;4904827;28;45529;-76
2023/11/25 06:51:23;;;;;;;;;6.00;6.00;;;;;;;;4904701;28;46922;-77
2023/11/25 06:53:49;;;;;;;;;7.67;7.00;;;;;;;;4921830;28;46539;-76
2023/11/25 06:56:16;;;;;;;;;3.33;2.00;;;;;;;;4921749;28;45265;-76
2023/11/25 06:58:41;;;;;;;;;5.33;4.00;;;;;;;;4903833;28;45358;-76
2023/11/25 07:01:07;;;;;;;;;4.00;3.33;;;;;;;;4902453;29;45284;-76
2023/11/25 07:03:32;;;;;;;;;7.67;5.00;;;;;;;;4885384;29;46933;-75
2023/11/25 07:05:57;;;;;;;;;6.33;4.00;;;;;;;;4884748;29;45533;-76
2023/11/25 07:08:22;;;;;;;;;6.00;4.00;;;;;;;;4902192;29;45558;-76
2023/11/25 07:10:53;;;;;;;;;7.00;6.00;;;;;;;;4902169;29;45589;-76
2023/11/25 07:13:19;;;;;;;;;2.00;2.00;;;;;;;;4902597;29;46565;-76
2023/11/25 07:15:44;;;;;;;;;4.00;3.67;;;;;;;;4885478;29;46020;-76
2023/11/25 07:18:09;;;;;;;;;4.00;4.00;;;;;;;;4885795;29;45288;-78
2023/11/25 07:20:35;;;;;;;;;4.00;4.00;;;;;;;;4905652;29;45498;-77
2023/11/25 07:23:00;;;;;;;;;28.00;24.00;;;;;;;;4905616;29;45227;-78
2023/11/25 07:25:28;;;;;;;;;3.67;3.67;;;;;;;;4905810;29;45226;-78
2023/11/25 07:27:53;;;;;;;;;6.67;4.33;;;;;;;;4888818;29;45438;-78
2023/11/25 07:30:18;;;;;;;;;3.67;3.67;;;;;;;;4905689;29;45639;-77
2023/11/25 07:32:46;;;;;;;;;8.67;7.00;;;;;;;;4888753;29;47625;-77
2023/11/25 07:35:12;;;;;;;;;7.67;6.67;;;;;;;;4905310;29;45499;-79
2023/11/25 07:37:38;;;;;;;;;6.67;6.67;;;;;;;;4888566;29;45281;-77
2023/11/25 07:40:08;;;;;;;;;9.00;8.00;;;;;;;;4888196;29;46337;-78
2023/11/25 07:42:33;;;;;;;;;10.00;10.00;;;;;;;;4905612;29;45395;-79
2023/11/25 07:44:58;;;;;;;;;9.67;8.33;;;;;;;;4905704;29;45273;-78
2023/11/25 07:47:23;;;;;;;;;15.67;13.00;;;;;;;;4905445;29;45262;-78
2023/11/25 07:49:48;;;;;;;;;14.33;14.33;;;;;;;;4905654;29;45317;-79
2023/11/25 07:52:15;;;;;;;;;10.67;9.00;;;;;;;;4905700;29;45309;-79
2023/11/25 07:54:40;;;;;;;;;10.33;9.67;;;;;;;;4888383;29;45352;-78
2023/11/25 07:57:06;;;;;;;;;8.67;8.67;;;;;;;;4910754;28;45494;-78
2023/11/25 07:59:31;;;;;;;;;7.00;7.00;;;;;;;;4924591;28;45461;-79
2023/11/25 08:01:56;;;;;;;;;10.00;10.00;;;;;;;;4907273;28;48026;-79
2023/11/25 08:04:22;;;;;;;;;4.00;2.00;;;;;;;;4907132;28;45435;-78
2023/11/25 08:06:47;;;;;;;;;9.00;9.00;;;;;;;;4907005;28;45384;-78
2023/11/25 08:09:12;;;;;;;;;8.67;8.67;;;;;;;;4924435;28;45574;-78
2023/11/25 08:11:38;;;;;;;;;8.00;8.00;;;;;;;;4906748;28;47396;-78
2023/11/25 08:14:03;;;;;;;;;7.33;7.33;;;;;;;;4924446;28;45459;-78
2023/11/25 08:16:28;;;;;;;;;9.67;7.00;;;;;;;;4907372;28;45411;-78
2023/11/25 08:18:53;;;;;;;;;9.33;9.33;;;;;;;;4924245;28;45410;-78
2023/11/25 08:21:18;;;;;;;;;8.00;6.33;;;;;;;;4907037;28;47276;-79
2023/11/25 08:23:43;;;;;;;;;7.00;5.67;;;;;;;;4910492;28;45384;-78
2023/11/25 08:26:19;;;;;;;;;13.67;11.67;;;;;;;;4905334;29;45434;-77
2023/11/25 08:28:44;;;;;;;;;9.33;8.33;;;;;;;;4887559;29;46288;-77
2023/11/25 08:31:09;;;;;;;;;11.67;8.33;;;;;;;;4903948;29;45242;-78
2023/11/25 08:33:34;;;;;;;;;10.33;10.33;;;;;;;;4904913;29;45217;-78
2023/11/25 08:36:00;;;;;;;;;7.00;7.00;;;;;;;;4888042;29;45319;-78
2023/11/25 08:38:25;;;;;;;;;11.67;10.00;;;;;;;;4905091;29;45272;-77
2023/11/25 08:40:50;;;;;;;;;10.33;8.00;;;;;;;;4904646;29;46552;-77
2023/11/25 08:43:15;;;;;;;;;10.00;9.00;;;;;;;;4904901;29;45194;-77
2023/11/25 08:45:42;;;;;;;;;7.67;7.00;;;;;;;;4887950;29;45261;-79
2023/11/25 08:48:07;;;;;;;;;15.00;12.67;;;;;;;;4904715;29;45306;-79
2023/11/25 08:50:33;;;;;;;;;9.33;9.00;;;;;;;;4904154;29;46109;-78
2023/11/25 08:52:58;;;;;;;;;9.00;9.00;;;;;;;;4904707;29;45238;-77
2023/11/25 08:55:23;;;;;;;;;8.00;8.00;;;;;;;;4904747;29;45286;-79
2023/11/25 08:57:50;;;;;;;;;13.00;10.33;;;;;;;;4898235;28;45552;-78
2023/11/25 09:00:21;;;;;;;;;10.00;10.00;;;;;;;;4906252;28;48262;-78
2023/11/25 09:02:50;;;;;;;;;7.00;7.00;;;;;;;;4906294;28;45266;-77
2023/11/25 09:05:15;;;;;;;;;14.33;13.33;;;;;;;;4906304;28;45333;-77
2023/11/25 09:07:41;;;;;;;;;17.67;13.67;;;;;;;;4905959;28;45993;-77
2023/11/25 09:10:07;;;;;;;;;10.00;10.00;;;;;;;;4923202;28;45361;-79
2023/11/25 09:12:33;;;;;;;;;10.00;10.00;;;;;;;;4905919;28;45314;-77
2023/11/25 09:14:59;;;;;;;;;1.67;1.33;;;;;;;;4906254;28;45362;-77
2023/11/25 09:17:25;;;;;;;;;11.00;9.67;;;;;;;;4906042;28;46487;-77
2023/11/25 09:19:50;;;;;;;;;9.33;9.33;;;;;;;;4905485;28;46146;-79
2023/11/25 09:22:15;;;;;;;;;11.33;11.33;;;;;;;;4923179;28;45328;-78
2023/11/25 09:24:41;;;;;;;;;12.67;12.33;;;;;;;;4906162;28;45552;-77
2023/11/25 09:27:06;;;;;;;;;11.67;11.67;;;;;;;;4922958;28;45450;-78
2023/11/25 09:29:31;;;;;;;;;10.33;9.00;;;;;;;;4905901;28;48013;-77
2023/11/25 09:31:56;;;;;;;;;9.33;9.33;;;;;;;;4905927;28;45339;-79
2023/11/25 09:34:23;;;;;;;;;12.33;11.67;;;;;;;;4923151;28;45488;-77
2023/11/25 09:36:49;;;;;;;;;12.00;12.00;;;;;;;;4922553;28;45265;-77
2023/11/25 09:39:14;;;;;;;;;15.00;13.67;;;;;;;;4922973;28;46434;-78
2023/11/25 09:41:40;;;;;;;;;13.00;13.00;;;;;;;;4922082;28;45287;-77
2023/11/25 09:44:07;;;;;;;;;17.00;15.00;;;;;;;;4921162;28;45580;-79
2023/11/25 09:46:33;;;;;;;;;13.67;11.33;;;;;;;;4922878;28;45341;-78
2023/11/25 09:48:58;;;;;;;;;6.33;6.33;;;;;;;;4921379;28;45521;-77
2023/11/25 09:51:24;;;;;;;;;17.00;16.33;;;;;;;;4922874;28;45252;-78
2023/11/25 09:53:54;;;;;;;;;5.67;5.67;;;;;;;;4922933;28;45360;-78
2023/11/25 09:56:19;;;;;;;;;10.00;9.00;;;;;;;;4922687;28;45910;-78
2023/11/25 09:58:45;;;;;;;;;11.00;9.00;;;;;;;;4903857;28;46075;-79
2023/11/25 10:01:12;;;;;;;;;5.00;5.00;;;;;;;;4903448;29;45314;-77
2023/11/25 10:03:39;;;;;;;;;5.67;5.67;;;;;;;;4903549;29;45290;-77
2023/11/25 10:06:04;;;;;;;;;6.33;6.33;;;;;;;;4885690;29;46308;-77
2023/11/25 10:08:30;;;;;;;;;7.33;7.00;;;;;;;;4902889;29;46528;-78
2023/11/25 10:11:05;;;;;;;;;5.00;5.00;;;;;;;;4903105;29;45330;-79
2023/11/25 10:13:42;;;;;;;;;4.00;4.00;;;;;;;;4903700;29;45272;-78
2023/11/25 10:16:08;;;;;;;;;9.67;9.67;;;;;;;;4903303;29;45181;-79
2023/11/25 10:18:35;;;;;;;;;7.33;6.00;;;;;;;;4903108;29;45899;-77
2023/11/25 10:21:00;;;;;;;;;7.00;7.00;;;;;;;;4886063;29;45346;-78
2023/11/25 10:23:26;;;;;;;;;4.00;4.00;;;;;;;;4903366;29;45424;-76
2023/11/25 10:25:54;;;;;;;;;9.00;6.00;;;;;;;;4903138;29;45367;-78
2023/11/25 10:28:25;;;;;;;;;3.00;3.00;;;;;;;;4903099;29;46429;-78
2023/11/25 10:30:57;;;;;;;;;5.00;3.00;;;;;;;;4903269;29;45298;-77
2023/11/25 10:33:28;;;;;;;;;7.33;5.33;;;;;;;;4903294;29;45347;-79
2023/11/25 10:35:54;;;;;;;;;4.33;4.33;;;;;;;;4902964;29;45254;-76
2023/11/25 10:38:22;;;;;;;;;5.00;5.00;;;;;;;;4902825;29;45361;-78
2023/11/25 10:40:50;;;;;;;;;3.33;3.33;;;;;;;;4903060;29;45253;-78
2023/11/25 10:43:15;;;;;;;;;7.00;5.00;;;;;;;;4886167;29;45378;-78
2023/11/25 10:45:42;;;;;;;;;5.00;5.00;;;;;;;;4903066;29;45311;-77
2023/11/25 10:48:07;;;;;;;;;8.00;6.67;;;;;;;;4902980;29;45373;-78
2023/11/25 10:50:33;;;;;;;;;3.00;3.00;;;;;;;;4902557;29;45321;-78
2023/11/25 10:52:58;;;;;;;;;6.00;5.00;;;;;;;;4885711;29;45358;-78
2023/11/25 10:55:26;;;;;;;;;3.00;2.33;;;;;;;;4885539;29;46216;-79
2023/11/25 10:57:51;;;;;;;;;4.33;4.00;;;;;;;;4914271;28;45478;-78
2023/11/25 11:00:17;;;;;;;;;2.00;2.00;;;;;;;;4921994;28;45308;-78
2023/11/25 11:02:44;;;;;;;;;3.00;3.00;;;;;;;;4904771;28;45276;-78
2023/11/25 11:05:09;;;;;;;;;4.00;4.00;;;;;;;;4921721;28;45490;-78
2023/11/25 11:07:43;;;;;;;;;4.33;4.00;;;;;;;;4921741;28;45938;-78
2023/11/25 11:10:11;;;;;;;;;4.67;3.67;;;;;;;;4908888;28;45305;-77
2023/11/25 11:12:36;;;;;;;;;3.00;3.00;;;;;;;;4902883;29;45433;-77
2023/11/25 11:15:03;;;;;;;;;3.00;3.00;;;;;;;;4901799;29;45575;-77
2023/11/25 11:17:38;;;;;;;;;3.00;3.00;;;;;;;;4885062;29;47266;-78
2023/11/25 11:20:09;;;;;;;;;4.00;4.00;;;;;;;;4902478;29;45410;-79
2023/11/25 11:22:35;;;;;;;;;3.00;2.67;;;;;;;;4902869;29;45383;-78
2023/11/25 11:25:22;;;;;;;;;2.00;2.00;;;;;;;;4902335;29;45304;-77
2023/11/25 11:27:51;;;;;;;;;4.00;3.33;;;;;;;;4902441;29;46439;-78
2023/11/25 11:30:24;;;;;;;;;0.00;0.00;;;;;;;;4902619;29;45227;-76
2023/11/25 11:32:50;;;;;;;;;5.67;5.00;;;;;;;;4902781;29;45228;-79
2023/11/25 11:35:19;;;;;;;;;3.00;2.00;;;;;;;;4902195;29;45177;-75
2023/11/25 11:37:49;;;;;;;;;3.67;3.67;;;;;;;;4902481;29;45447;-76
2023/11/25 11:40:14;;;;;;;;;2.00;2.00;;;;;;;;4902280;29;45255;-76
2023/11/25 11:42:40;;;;;;;;;3.00;2.00;;;;;;;;4902538;29;45208;-78
2023/11/25 11:45:18;;;;;;;;;7.33;6.00;;;;;;;;4902345;29;46000;-78
2023/11/25 11:47:44;;;;;;;;;5.33;5.33;;;;;;;;4902430;29;45409;-77
2023/11/25 11:50:14;;;;;;;;;4.67;3.00;;;;;;;;4902174;29;45398;-77
2023/11/25 11:52:44;;;;;;;;;5.00;4.00;;;;;;;;4885466;29;45309;-77
2023/11/25 11:55:28;;;;;;;;;2.33;1.00;;;;;;;;4901793;29;45522;-76
2023/11/25 11:58:20;;;;;;;;;5.00;3.00;;;;;;;;4896415;28;48663;-76
2023/11/25 12:00:45;;;;;;;;;5.33;5.00;;;;;;;;4918242;28;45312;-77
2023/11/25 12:03:10;;;;;;;;;3.75;3.50;;;;;;;;4921316;28;45214;-78
2023/11/25 12:05:35;;;;;;;;;6.00;5.33;;;;;;;;4921746;28;45521;-77
2023/11/25 12:08:01;;;;;;;;;4.00;4.00;;;;;;;;4924411;28;45648;-78
2023/11/25 12:10:26;;;;;;;;;4.00;4.00;;;;;;;;4924197;28;45659;-79
2023/11/25 12:12:52;;;;;;;;;2.00;2.00;;;;;;;;4924356;28;45722;-77
2023/11/25 12:15:18;;;;;;;;;6.00;4.00;;;;;;;;4924240;28;45453;-77
2023/11/25 12:17:44;;;;;;;;;4.33;4.00;;;;;;;;4924327;28;45279;-77
2023/11/25 12:20:10;;;;;;;;;1.00;1.00;;;;;;;;4924260;28;45397;-77
2023/11/25 12:22:36;;;;;;;;;3.00;3.00;;;;;;;;4924285;28;45538;-76
2023/11/25 12:25:01;;;;;;;;;7.00;7.00;;;;;;;;4906563;28;46086;-77
2023/11/25 12:27:28;;;;;;;;;2.33;1.67;;;;;;;;4924203;28;45446;-79
2023/11/25 12:29:54;;;;;;;;;1.00;1.00;;;;;;;;4924182;28;45440;-79
2023/11/25 12:32:19;;;;;;;;;3.00;2.00;;;;;;;;4907014;28;45200;-78
2023/11/25 12:34:45;;;;;;;;;2.00;2.00;;;;;;;;4923813;28;45276;-79
2023/11/25 12:37:12;;;;;;;;;1.67;1.67;;;;;;;;4923955;28;45937;-78
2023/11/25 12:39:38;;;;;;;;;2.00;2.00;;;;;;;;4906499;28;45290;-78
2023/11/25 12:42:04;;;;;;;;;3.33;3.33;;;;;;;;4923898;28;45293;-78
2023/11/25 12:44:46;;;;;;;;;4.67;2.33;;;;;;;;4924056;28;45283;-77
2023/11/25 12:47:11;;;;;;;;;4.67;4.00;;;;;;;;4923802;28;45302;-78
2023/11/25 12:49:37;;;;;;;;;6.00;5.00;;;;;;;;4905507;28;45246;-78
2023/11/25 12:52:02;;;;;;;;;5.00;5.00;;;;;;;;4887729;29;45284;-78
2023/11/25 12:54:42;;;;;;;;;6.00;4.00;;;;;;;;4904664;29;45445;-78
2023/11/25 12:57:09;;;;;;;;;4.00;3.00;;;;;;;;4908954;28;45401;-78
2023/11/25 12:59:34;;;;;;;;;3.00;3.00;;;;;;;;4923818;28;45378;-79
2023/11/25 13:02:07;;;;;;;;;4.67;3.67;;;;;;;;4923992;28;45287;-76
2023/11/25 13:04:32;;;;;;;;;4.33;4.33;;;;;;;;4923461;28;45356;-77
2023/11/25 13:06:59;;;;;;;;;7.00;7.00;;;;;;;;4923319;28;45374;-77
2023/11/25 13:09:27;;;;;;;;;3.67;3.67;;;;;;;;4923526;28;45248;-78
2023/11/25 13:11:52;;;;;;;;;4.00;4.00;;;;;;;;4905982;28;45266;-78
2023/11/25 13:14:18;;;;;;;;;2.33;2.33;;;;;;;;4923385;28;45387;-79
2023/11/25 13:16:43;;;;;;;;;5.00;4.00;;;;;;;;4922824;28;45264;-78
2023/11/25 13:19:08;;;;;;;;;4.00;3.67;;;;;;;;4923361;28;45343;-79
2023/11/25 13:21:34;;;;;;;;;5.00;4.00;;;;;;;;4923429;28;45211;-77
2023/11/25 13:24:00;;;;;;;;;8.67;6.33;;;;;;;;4923143;28;45273;-78
2023/11/25 13:26:27;;;;;;;;;5.67;5.33;;;;;;;;4922569;28;45847;-77
2023/11/25 13:28:52;;;;;;;;;4.33;4.33;;;;;;;;4905792;28;45917;-79
2023/11/25 13:31:17;;;;;;;;;6.67;6.67;;;;;;;;4923330;28;45356;-78
2023/11/25 13:33:43;;;;;;;;;3.67;2.67;;;;;;;;4923054;28;45855;-78
2023/11/25 13:36:08;;;;;;;;;4.33;4.00;;;;;;;;4922973;28;45886;-77
2023/11/25 13:38:34;;;;;;;;;3.00;3.00;;;;;;;;4905994;28;45244;-78
2023/11/25 13:40:59;;;;;;;;;6.33;4.33;;;;;;;;4905741;28;45323;-78
2023/11/25 13:43:24;;;;;;;;;3.00;3.00;;;;;;;;4923042;28;45289;-79
2023/11/25 13:45:49;;;;;;;;;2.67;2.00;;;;;;;;4906048;28;48346;-78
2023/11/25 13:48:16;;;;;;;;;3.00;2.00;;;;;;;;4905928;28;45942;-78
2023/11/25 13:50:41;;;;;;;;;6.00;4.00;;;;;;;;4923095;28;45335;-75
2023/11/25 13:53:07;;;;;;;;;2.50;2.00;;;;;;;;4922749;28;45449;-76
2023/11/25 13:55:41;;;;;;;;;2.00;0.00;;;;;;;;4905551;28;47451;-76
2023/11/25 13:58:07;;;;;;;;;3.50;1.75;;;;;;;;4892352;29;45209;-76
2023/11/25 14:00:34;;;;;;;;;2.00;2.00;;;;;;;;4903805;29;45218;-76
2023/11/25 14:02:59;;;;;;;;;1.00;1.00;;;;;;;;4903613;29;45237;-76
2023/11/25 14:05:25;;;;;;;;;8.67;7.67;;;;;;;;4904071;29;46162;-76
2023/11/25 14:07:51;;;;;;;;;4.00;4.00;;;;;;;;4903854;29;45364;-76
2023/11/25 14:10:16;;;;;;;;;7.00;7.00;;;;;;;;4886468;29;45423;-75
2023/11/25 14:12:42;;;;;;;;;11.67;10.33;;;;;;;;4889472;29;46935;-77
2023/11/25 14:15:07;;;;;;;;;0.00;0.00;;;;;;;;4914859;29;45378;-76
2023/11/25 14:17:35;;;;;;;;;2.75;2.75;;;;;;;;4886848;29;45963;-74
2023/11/25 14:20:01;;;;;;;;;2.00;1.25;;;;;;;;4903581;29;45341;-75
2023/11/25 14:22:26;;;;;;;;;2.67;2.67;;;;;;;;4903607;29;45263;-76
2023/11/25 14:24:51;;;;;;;;;1.00;1.00;;;;;;;;4903966;29;46342;-76
2023/11/25 14:27:16;;;;;;;;;1.67;1.67;;;;;;;;4887058;29;45903;-76
2023/11/25 14:29:44;;;;;;;;;5.67;2.67;;;;;;;;4886860;29;45428;-76
2023/11/25 14:32:10;;;;;;;;;2.67;2.67;;;;;;;;4904442;29;45272;-77
2023/11/25 14:34:36;;;;;;;;;2.67;2.00;;;;;;;;4903783;29;45330;-77
2023/11/25 14:37:01;;;;;;;;;9.00;8.00;;;;;;;;4904433;29;45396;-77